Aérodrome :







RETROUVEZ-NOUS SUR...

 
LOGIN :

S'inscrire | Disclaimer

   EN    FR    IT 

 









Légende :    VFR   VFR Marginal   IFR   IFR Intensif   IFR Très Intensif
Visi : 
Plafond : 
>= 8 km
>= 3000ft
5 à 8 km
1000 à 3000 ft
1500m à 5 km
500 à 1000 ft
800 à 1500m
200 à 500 ft
< 800m
< 200 ft
Symboles :   Orages  Brouillard  Fortes neiges  Fortes précipitations  Vent > 20 kt






- Altitude de l'aérodrome : 175 ft
- Code IATA : YLC


CYLC - Kimmirut

DERNIER METAR :
  • 031733Z 07027G41KT 15SM DRSN BKN050 OVC069 M03/M09 A2968 RMK SC5AS3 SLP058

METARs EXPIRÉS :
  • 031722Z 06024G38KT 10SM -SN DRSN SCT050 OVC069 M03/M09 A2969 RMK SC3AS5 SLP059
  • 031700Z 07024G38KT 1/2SM BLSN OVC040 VV050 M04/M09 A2970 RMK SC5BLSN3 SLP064
  • 031600Z 08017G28KT 15SM -SN DRSN SCT048 OVC059 M03/M09 A2977 RMK SC3SC5 PRESFR SLP086
  • 031500Z 09018G28KT 15SM -SN DRSN BKN036 OVC044 M03/M08 A2983 RMK SC5SC3 PRESFR SLP107

TAF N/A
FIR CZUL / Amérique du Nord



MET'MAP, la Météo Aéronautique d'un coup d'oeil ! - Copyright ORBIFLY Décembre 2007 - Disclaimer

ORBIFLY MET'MAP TEAM :

Programmation & Développement : Alexandra Zaïnal
Sur une idée originale de : Baudouin d'Aumeries
Assistance à la programmation : Marc-Olivier Méhu
Soutien technique & logistique : Manuel Goepfert

Contact : metmap@orbifly.com




SOURCES & CREDITS :

   NOAA